My Meet Scores
Vivienne Dean, St. Charles Gymnastics Academy - MyMeetScores.com
Top100 | Top Teams | Upcoming Meets | Completed Meets | Latest | Add Scores | Help| Support | Bookmark and Share

Vivienne Dean, St. Charles Gymnastics Academy
Personal Bests
LevelVault BarsBeamFloorAA
39.2508.900 8.7508.50035.150
49.4259.500 9.6509.60037.875
69.4508.675 9.5759.57536.675
Meet Scores
Date Meet Team Session Level Division Vault Bars Beam Floor AA
2019-03-15 Illinois State Championship Level 6,9,10 St. Charles Gymnastics Academy 11 6 Jr H 9.050 11T 8.050 22 9.575 1T 9.550 4 36.225 15
2019-02-15 Women's Midwest Open St. Charles Gymnastics Academy 01 6 Junior B 9.450 1 8.675 8 9.025 6 9.525 4T 36.675 4
2019-01-25 Metroplex Challenge St. Charles Gymnastics Academy R05 6 Sr A 9.250 3 7.650 16 9.275 4 9.550 3 35.725 8
2019-01-11 St Jude Benefit Meet St. Charles Gymnastics Academy 2B 6 Jr B 9.075 3 8.350 12 8.850 10 9.575 7 35.850 10
2018-12-07 St. Nick Invite 2018 St. Charles Gymnastics Academy 2 6 JrB 8.850 8 8.250 13 8.975 11 9.575 3T 35.650 13
2018-03-08 Level 4 & 5 State St. Charles Gymnastics Academy All 4 Jr E 9.425 3 8.650 21 9.650 1 9.550 3 37.275 3
2018-02-23 Kinetic Classic St. Charles Gymnastics Academy 7 4 Older 8.800 14T 9.000 29T 9.400 12T 9.375 8* 36.575 10T
2018-02-16 Big Classic St. Charles Gymnastics Academy 7B 4 Child D 9.175 2 9.500 1 9.600 2 9.600 1 37.875 1
2018-01-26 King Arthur Invitational St. Charles Gymnastics Academy 6 4 SR A 9.250 3T 9.175 3T 9.500 2 9.000 6T 36.925 2
2018-01-12 St Jude Benefit Meet St. Charles Gymnastics Academy 2A 4 SrA 9.150 2 9.100 11 9.425 4 9.325 3 37.000 4
2017-12-14 2017 Women's Hawaiian Pineapple Classic St. Charles Gymnastics Academy 6A 4 Age10 8.750 2 9.150 1T 8.700 3 8.775 5 35.375 3
2017-12-01 Ultimate Wish Classic St. Charles Gymnastics Academy 6 4 Sr A 8.700 4 9.250 2T 9.075 6 9.125 5 36.150 4
2017-11-17 SCGA Classic St. Charles Gymnastics Academy 2 4 JrC 9.175 2 8.375 6 8.500 7 9.200 1 35.250 3
2017-03-10 2017 Illinois Level 4 State Championships St. Charles Gymnastics Academy 3 4 Youth B 8.300 24 8.400 28T 9.250 10 9.000 14T 34.950 23
2017-02-24 Kinetic Classic St. Charles Gymnastics Academy 5,6 4 All Ages 8.425 97 8.300 97 8.525 115T 9.000 65T 34.250 96
2017-02-10 IGI Chicago Style Gymnastics Meet St. Charles Gymnastics Academy 621L 4 JrB 8.250 14 8.175 13 9.175 8 8.800 8 34.400 11
2017-01-20 2017 Bravo Classic St. Charles Gymnastics Academy 07B 4 9yrs 7.450 24 7.725 23 8.350 21 8.600 19 32.125 24
2017-01-13 St Jude Benefit Meet St. Charles Gymnastics Academy 3A 4 Jr C 8.050 9 7.400 14 9.100 7T 8.550 7 33.100 9
2016-12-15 2016 Hawaiian Pineapple Sanction St. Charles Gymnastics Academy 9A 4 Age 9 8.650 11T 7.800 16 9.200 8T 8.850 13T 34.500 13
2016-12-02 Ultimate Wish Classic St. Charles Gymnastics Academy 13 4 Jr B 8.500 10T 0.000 20T 8.800 13T 8.500 19 25.800 21
2016-03-04 2016 Illinois Level 3 State Championships Buffalo Grove Gymn Center 3 Youth-E 9.250 21 8.900 22 8.500 16 8.500 25 35.150 21
2016-02-19 Midwest Open Womens 2016 Buffalo Grove Gymn Center 1A 3 8 9.150 15 8.500 20 8.750 9 0.000 26 26.400 26
2015-12-04 2015 Ultimate Wish Classic Buffalo Grove Gymn Center 10B 3 All 8.650 53 8.850 35 8.350 50 0.000 83 25.850 82
Get your scores on
a t-shirt, pin, or hoodie

www.lazysuits.com